createdAt,value
2022-09-22T00:01:02.802Z,100.00
2022-09-22T00:03:31.105Z,100.00
2022-09-22T00:06:03.139Z,100.00
2022-09-22T00:08:35.186Z,100.00
2022-09-22T00:11:16.759Z,100.00
2022-09-22T00:13:45.809Z,100.00
2022-09-22T00:16:14.063Z,100.00
2022-09-22T00:18:40.728Z,100.00
2022-09-22T00:21:09.362Z,100.00
2022-09-22T00:23:37.017Z,100.00
2022-09-22T00:26:11.975Z,100.00
2022-09-22T00:28:40.122Z,100.00
2022-09-22T00:31:09.213Z,100.00
2022-09-22T00:33:36.142Z,100.00
2022-09-22T00:36:03.844Z,100.00
2022-09-22T00:38:31.216Z,100.00
2022-09-22T00:40:57.917Z,100.00
2022-09-22T00:43:27.134Z,100.00
2022-09-22T00:46:12.615Z,100.00
2022-09-22T00:48:45.173Z,100.00
2022-09-22T00:51:16.631Z,100.00
2022-09-22T00:53:43.542Z,100.00
2022-09-22T00:56:15.931Z,100.00
2022-09-22T00:58:48.307Z,100.00
2022-09-22T01:01:15.927Z,100.00
2022-09-22T01:03:43.890Z,100.00
2022-09-22T01:06:16.101Z,100.00
2022-09-22T01:08:44.707Z,100.00
2022-09-22T01:11:13.534Z,100.00
2022-09-22T01:13:55.545Z,100.00
2022-09-22T01:16:46.209Z,100.00
2022-09-22T01:19:40.716Z,100.00
2022-09-22T01:22:33.940Z,100.00
2022-09-22T01:25:09.244Z,100.00
2022-09-22T01:28:00.506Z,100.00
2022-09-22T01:30:42.600Z,100.00
2022-09-22T01:33:36.629Z,100.00
2022-09-22T01:36:13.656Z,100.00
2022-09-22T01:38:48.686Z,100.00
2022-09-22T01:41:21.542Z,100.00
2022-09-22T01:43:54.958Z,100.00
2022-09-22T01:46:29.302Z,100.00
2022-09-22T01:49:00.560Z,100.00
2022-09-22T01:51:39.064Z,100.00
2022-09-22T01:54:12.869Z,100.00
2022-09-22T01:56:42.189Z,100.00
2022-09-22T01:59:11.938Z,100.00
2022-09-22T02:01:46.106Z,100.00
2022-09-22T02:04:22.363Z,100.00
2022-09-22T02:07:01.006Z,100.00
2022-09-22T02:09:31.634Z,100.00
2022-09-22T02:11:59.045Z,100.00
2022-09-22T02:14:26.124Z,100.00
2022-09-22T02:16:53.772Z,100.00
2022-09-22T02:19:24.203Z,100.00
2022-09-22T02:21:51.272Z,100.00
2022-09-22T02:24:34.545Z,100.00
2022-09-22T02:27:06.419Z,100.00
2022-09-22T02:29:41.053Z,100.00
2022-09-22T02:32:13.621Z,100.00
2022-09-22T02:34:40.541Z,100.00
2022-09-22T02:37:50.983Z,100.00
2022-09-22T02:40:32.231Z,100.00
2022-09-22T02:43:06.593Z,100.00
2022-09-22T02:45:50.322Z,100.00
2022-09-22T02:48:31.000Z,100.00
2022-09-22T02:50:57.764Z,100.00
2022-09-22T02:53:24.230Z,100.00
2022-09-22T02:55:50.839Z,100.00
2022-09-22T02:58:17.686Z,100.00
2022-09-22T03:00:45.303Z,100.00
2022-09-22T03:03:12.425Z,100.00
2022-09-22T03:05:39.103Z,100.00
2022-09-22T03:08:05.814Z,100.00
2022-09-22T03:10:32.769Z,100.00
2022-09-22T03:13:18.818Z,100.00
2022-09-22T03:15:46.459Z,100.00
2022-09-22T03:18:13.881Z,100.00
2022-09-22T03:20:40.666Z,100.00
2022-09-22T03:23:07.545Z,100.00
2022-09-22T03:25:34.085Z,100.00
2022-09-22T03:28:00.898Z,100.00
2022-09-22T03:30:27.459Z,100.00
2022-09-22T03:32:53.953Z,100.00
2022-09-22T03:35:20.513Z,100.00
2022-09-22T03:37:46.995Z,100.00
2022-09-22T03:40:14.097Z,100.00
2022-09-22T03:42:40.567Z,100.00
2022-09-22T03:45:07.516Z,100.00
2022-09-22T03:47:34.339Z,100.00
2022-09-22T03:50:00.985Z,100.00
2022-09-22T03:52:27.433Z,100.00
2022-09-22T03:54:54.501Z,100.00
2022-09-22T03:57:21.206Z,100.00
2022-09-22T03:59:47.686Z,100.00
2022-09-22T04:02:14.299Z,100.00
2022-09-22T04:04:40.951Z,100.00
2022-09-22T04:07:07.732Z,100.00
2022-09-22T04:09:34.801Z,100.00
2022-09-22T04:12:01.596Z,100.00
2022-09-22T04:14:28.180Z,100.00
2022-09-22T04:16:54.731Z,100.00
2022-09-22T04:19:22.038Z,100.00
2022-09-22T04:21:51.975Z,100.00
2022-09-22T04:24:21.231Z,100.00
2022-09-22T04:27:02.198Z,100.00
2022-09-22T04:29:34.198Z,100.00
2022-09-22T04:32:00.852Z,100.00
2022-09-22T04:34:27.392Z,100.00
2022-09-22T04:36:53.929Z,100.00
2022-09-22T04:39:23.782Z,100.00
2022-09-22T04:41:50.947Z,100.00
2022-09-22T04:44:17.440Z,100.00
2022-09-22T04:46:46.103Z,100.00
2022-09-22T04:49:16.872Z,100.00
2022-09-22T04:51:43.377Z,100.00
2022-09-22T04:54:10.043Z,100.00
2022-09-22T04:56:36.561Z,100.00
2022-09-22T04:59:03.215Z,100.00
2022-09-22T05:01:29.808Z,100.00
2022-09-22T05:03:56.356Z,100.00
2022-09-22T05:06:22.808Z,100.00
2022-09-22T05:08:49.309Z,100.00
2022-09-22T05:11:15.744Z,100.00
2022-09-22T05:13:42.233Z,100.00
2022-09-22T05:16:08.796Z,100.00
2022-09-22T05:18:35.561Z,100.00
2022-09-22T05:21:02.199Z,100.00
2022-09-22T05:23:28.940Z,100.00
2022-09-22T05:25:55.441Z,100.00
2022-09-22T05:28:24.305Z,100.00
2022-09-22T05:30:51.481Z,100.00
2022-09-22T05:33:18.378Z,100.00
2022-09-22T05:35:45.425Z,100.00
2022-09-22T05:38:11.895Z,100.00
2022-09-22T05:40:38.504Z,100.00
2022-09-22T05:43:05.188Z,100.00
2022-09-22T05:45:31.838Z,100.00
2022-09-22T05:47:58.417Z,100.00
2022-09-22T05:50:24.918Z,100.00
2022-09-22T05:52:51.820Z,100.00
2022-09-22T05:55:18.499Z,100.00
2022-09-22T05:57:45.078Z,100.00
2022-09-22T06:00:13.304Z,100.00
2022-09-22T06:02:40.108Z,100.00
2022-09-22T06:05:06.995Z,100.00
2022-09-22T06:07:33.737Z,100.00
2022-09-22T06:10:00.300Z,100.00
2022-09-22T06:12:26.799Z,100.00
2022-09-22T06:14:53.334Z,100.00
2022-09-22T06:17:19.845Z,100.00
2022-09-22T06:19:50.114Z,100.00
2022-09-22T06:22:17.940Z,100.00
2022-09-22T06:24:44.669Z,100.00
2022-09-22T06:27:11.155Z,100.00
2022-09-22T06:29:38.003Z,100.00
2022-09-22T06:32:08.125Z,100.00
2022-09-22T06:34:38.037Z,100.00
2022-09-22T06:37:08.386Z,100.00
2022-09-22T06:39:37.702Z,100.00
2022-09-22T06:42:05.240Z,100.00
2022-09-22T06:44:33.019Z,100.00
2022-09-22T06:47:05.208Z,100.00
2022-09-22T06:49:31.673Z,100.00
2022-09-22T06:51:58.571Z,100.00
2022-09-22T06:54:25.742Z,100.00
2022-09-22T06:56:52.712Z,100.00
2022-09-22T06:59:19.744Z,100.00
2022-09-22T07:01:46.709Z,100.00
2022-09-22T07:04:14.155Z,100.00
2022-09-22T07:06:41.376Z,100.00
2022-09-22T07:09:09.219Z,100.00
2022-09-22T07:11:39.887Z,100.00
2022-09-22T07:14:08.601Z,100.00
2022-09-22T07:16:36.300Z,100.00
2022-09-22T07:19:04.845Z,100.00
2022-09-22T07:21:38.273Z,100.00
2022-09-22T07:24:08.131Z,100.00
2022-09-22T07:26:37.533Z,100.00
2022-09-22T07:29:07.735Z,100.00
2022-09-22T07:31:36.478Z,100.00
2022-09-22T07:34:03.767Z,100.00
2022-09-22T07:36:32.429Z,100.00
2022-09-22T07:39:05.697Z,100.00
2022-09-22T07:41:41.324Z,100.00
2022-09-22T07:44:31.370Z,100.00
2022-09-22T07:46:58.452Z,100.00
2022-09-22T07:49:27.060Z,100.00
2022-09-22T07:51:57.227Z,100.00
2022-09-22T07:54:25.768Z,100.00
2022-09-22T07:56:56.033Z,100.00
2022-09-22T07:59:22.505Z,100.00
2022-09-22T08:01:50.740Z,100.00
2022-09-22T08:04:23.006Z,100.00
2022-09-22T08:06:52.248Z,100.00
2022-09-22T08:09:19.268Z,100.00
2022-09-22T08:11:48.705Z,99.42
2022-09-22T08:14:17.384Z,97.88
2022-09-22T08:16:44.376Z,96.46
2022-09-22T08:19:12.560Z,95.27
2022-09-22T08:21:48.452Z,94.83
2022-09-22T08:24:22.531Z,93.59
2022-09-22T08:26:50.782Z,92.21
2022-09-22T08:29:17.507Z,91.20
2022-09-22T08:31:47.404Z,90.40
2022-09-22T08:34:16.363Z,90.63
2022-09-22T08:36:49.240Z,89.92
2022-09-22T08:39:19.226Z,89.54
2022-09-22T08:41:48.665Z,89.19
2022-09-22T08:44:22.938Z,89.56
2022-09-22T08:46:51.978Z,88.69
2022-09-22T08:49:44.591Z,87.90
2022-09-22T08:52:35.896Z,87.97
2022-09-22T08:55:03.418Z,87.92
2022-09-22T08:57:56.187Z,87.27
2022-09-22T09:00:24.859Z,87.32
2022-09-22T09:03:26.265Z,86.10
2022-09-22T09:06:05.123Z,85.68
2022-09-22T09:09:05.287Z,86.24
2022-09-22T09:11:35.080Z,85.68
2022-09-22T09:14:22.121Z,85.75
2022-09-22T09:16:54.776Z,85.48
2022-09-22T09:19:24.253Z,84.22
2022-09-22T09:21:52.966Z,83.18
2022-09-22T09:27:20.141Z,81.92
2022-09-22T09:30:17.831Z,81.92
2022-09-22T09:32:50.394Z,81.96
2022-09-22T09:35:24.693Z,82.12
2022-09-22T09:37:53.692Z,82.64
2022-09-22T09:40:22.110Z,81.47
2022-09-22T09:43:04.141Z,81.37
2022-09-22T09:45:44.639Z,80.41
2022-09-22T09:48:27.564Z,80.26
2022-09-22T09:50:54.636Z,80.20
2022-09-22T09:53:30.665Z,79.99
2022-09-22T09:55:57.887Z,79.21
2022-09-22T09:58:42.996Z,78.91
2022-09-22T10:01:13.699Z,79.37
2022-09-22T10:03:54.750Z,79.07
2022-09-22T10:06:26.376Z,78.08
2022-09-22T10:08:53.207Z,78.03
2022-09-22T10:11:31.168Z,78.65
2022-09-22T10:13:58.665Z,76.38
2022-09-22T10:16:26.025Z,77.06
2022-09-22T10:19:27.449Z,78.17
2022-09-22T10:22:27.482Z,76.77
2022-09-22T10:25:00.079Z,76.60
2022-09-22T10:27:28.843Z,77.60
2022-09-22T10:30:13.480Z,76.62
2022-09-22T10:32:40.424Z,76.67
2022-09-22T10:35:28.751Z,76.12
2022-09-22T10:38:07.997Z,75.26
2022-09-22T10:40:39.209Z,73.12
2022-09-22T10:43:13.144Z,72.44
2022-09-22T10:45:54.085Z,72.24
2022-09-22T10:48:39.148Z,71.41
2022-09-22T10:51:16.093Z,70.87
2022-09-22T10:54:17.676Z,69.29
2022-09-22T10:56:50.101Z,69.75
2022-09-22T10:59:16.525Z,68.69
2022-09-22T11:01:57.377Z,69.14
2022-09-22T11:05:02.541Z,69.00
2022-09-22T11:08:08.539Z,67.80
2022-09-22T11:11:11.466Z,66.07
2022-09-22T11:14:07.412Z,63.94
2022-09-22T11:16:57.054Z,64.41
2022-09-22T11:19:43.226Z,64.82
2022-09-22T11:22:57.768Z,65.73
2022-09-22T11:25:36.566Z,64.51
2022-09-22T11:28:15.243Z,62.76
2022-09-22T11:30:49.686Z,62.18
2022-09-22T11:33:54.281Z,61.74
2022-09-22T11:36:51.603Z,59.55
2022-09-22T11:39:43.632Z,61.89
2022-09-22T11:42:25.226Z,62.83
2022-09-22T11:44:58.103Z,61.39
2022-09-22T11:47:47.398Z,62.32
2022-09-22T11:50:56.783Z,60.73
2022-09-22T11:53:56.885Z,62.58
2022-09-22T11:56:38.933Z,62.90
2022-09-22T11:59:29.991Z,60.51
2022-09-22T12:02:00.133Z,61.12
2022-09-22T12:04:52.667Z,60.86
2022-09-22T12:07:34.001Z,60.91
2022-09-22T12:10:05.346Z,59.87
2022-09-22T12:12:33.182Z,58.93
2022-09-22T12:15:15.962Z,58.02
2022-09-22T12:18:14.983Z,57.70
2022-09-22T12:20:55.215Z,57.99
2022-09-22T12:23:40.375Z,57.68
2022-09-22T12:26:12.193Z,57.54
2022-09-22T12:28:44.023Z,57.31
2022-09-22T12:31:15.158Z,57.50
2022-09-22T12:33:46.723Z,57.32
2022-09-22T12:36:14.344Z,56.66
2022-09-22T12:38:41.439Z,55.79
2022-09-22T12:41:08.378Z,56.31
2022-09-22T12:43:36.716Z,56.67
2022-09-22T12:46:15.735Z,54.21
2022-09-22T12:48:45.990Z,57.08
2022-09-22T12:51:26.206Z,55.81
2022-09-22T12:54:21.838Z,56.54
2022-09-22T12:57:01.038Z,54.93
2022-09-22T12:59:36.511Z,54.32
2022-09-22T13:02:43.003Z,51.38
2022-09-22T13:05:09.423Z,52.81
2022-09-22T13:07:40.760Z,52.60
2022-09-22T13:10:22.912Z,52.20
2022-09-22T13:13:02.007Z,51.21
2022-09-22T13:15:31.990Z,51.06
2022-09-22T13:17:58.894Z,51.01
2022-09-22T13:20:28.124Z,51.86
2022-09-22T13:22:56.605Z,51.82
2022-09-22T13:25:28.478Z,51.94
2022-09-22T13:28:16.245Z,52.18
2022-09-22T13:30:44.549Z,52.46
2022-09-22T13:33:28.892Z,51.16
2022-09-22T13:36:01.848Z,49.97
2022-09-22T13:38:29.405Z,51.14
2022-09-22T13:40:55.889Z,51.17
2022-09-22T13:43:33.085Z,50.46
2022-09-22T13:46:01.605Z,50.48
2022-09-22T13:48:36.660Z,50.44
2022-09-22T13:51:09.127Z,50.49
2022-09-22T13:53:37.272Z,50.27
2022-09-22T13:56:04.329Z,50.86
2022-09-22T13:58:38.399Z,50.55
2022-09-22T14:01:14.727Z,50.74
2022-09-22T14:03:42.125Z,50.54
2022-09-22T14:06:13.742Z,49.96
2022-09-22T14:08:42.919Z,50.72
2022-09-22T14:11:18.863Z,50.13
2022-09-22T14:13:54.452Z,50.56
2022-09-22T14:16:48.336Z,50.05
2022-09-22T14:19:23.555Z,49.70
2022-09-22T14:21:56.007Z,50.12
2022-09-22T14:24:23.525Z,50.22
2022-09-22T14:26:53.893Z,50.43
2022-09-22T14:29:27.995Z,50.37
2022-09-22T14:32:45.755Z,50.52
2022-09-22T14:35:33.122Z,50.64
2022-09-22T14:38:11.268Z,50.82
2022-09-22T14:40:55.723Z,50.94
2022-09-22T14:43:31.225Z,50.96
2022-09-22T14:46:00.582Z,50.92
2022-09-22T14:48:33.018Z,50.33
2022-09-22T14:51:08.183Z,50.63
2022-09-22T14:53:43.936Z,51.49
2022-09-22T14:56:17.554Z,51.17
2022-09-22T14:58:49.175Z,50.69
2022-09-22T15:01:42.103Z,50.42
2022-09-22T15:04:23.175Z,50.89
2022-09-22T15:06:58.894Z,51.04
2022-09-22T15:09:33.501Z,50.61
2022-09-22T15:12:02.816Z,50.78
2022-09-22T15:14:42.239Z,50.50
2022-09-22T15:18:01.948Z,50.86
2022-09-22T15:20:58.235Z,50.49
2022-09-22T15:23:44.735Z,50.73
2022-09-22T15:26:21.680Z,50.66
2022-09-22T15:28:52.729Z,50.92
2022-09-22T15:31:26.755Z,51.67
2022-09-22T15:33:54.543Z,52.13
2022-09-22T15:36:22.708Z,52.43
2022-09-22T15:38:49.579Z,52.42
2022-09-22T15:41:17.230Z,52.64
2022-09-22T15:43:44.252Z,52.62
2022-09-22T15:46:28.065Z,52.61
2022-09-22T15:49:00.068Z,51.97
2022-09-22T15:51:27.413Z,52.13
2022-09-22T15:53:54.139Z,52.42
2022-09-22T15:56:23.309Z,53.21
2022-09-22T15:58:52.267Z,53.34
2022-09-22T16:01:18.761Z,53.72
2022-09-22T16:03:45.396Z,53.73
2022-09-22T16:06:16.039Z,53.72
2022-09-22T16:08:46.126Z,53.46
2022-09-22T16:11:16.252Z,53.55
2022-09-22T16:13:42.993Z,52.86
2022-09-22T16:16:10.690Z,51.73
2022-09-22T16:18:39.621Z,51.81
2022-09-22T16:21:07.868Z,50.47
2022-09-22T16:23:34.431Z,49.73
2022-09-22T16:26:00.885Z,49.23
2022-09-22T16:28:27.306Z,47.72
2022-09-22T16:30:53.781Z,47.46
2022-09-22T16:33:20.965Z,46.83
2022-09-22T16:35:47.876Z,46.06
2022-09-22T16:38:14.389Z,45.76
2022-09-22T16:40:40.903Z,45.65
2022-09-22T16:43:08.890Z,45.99
2022-09-22T16:45:54.000Z,46.34
2022-09-22T16:48:20.512Z,46.83
2022-09-22T16:50:47.221Z,47.40
2022-09-22T16:53:14.326Z,48.15
2022-09-22T16:55:48.195Z,48.92
2022-09-22T16:58:14.742Z,49.64
2022-09-22T17:00:41.338Z,50.66
2022-09-22T17:03:08.315Z,51.73
2022-09-22T17:05:35.197Z,52.13
2022-09-22T17:08:06.486Z,52.73
2022-09-22T17:10:35.848Z,53.65
2022-09-22T17:13:04.842Z,54.34
2022-09-22T17:15:36.019Z,55.00
2022-09-22T17:18:04.107Z,55.39
2022-09-22T17:20:30.749Z,56.18
2022-09-22T17:22:57.682Z,57.39
2022-09-22T17:25:28.006Z,58.15
2022-09-22T17:27:54.851Z,58.91
2022-09-22T17:30:21.963Z,59.72
2022-09-22T17:32:48.921Z,60.90
2022-09-22T17:35:15.473Z,61.59
2022-09-22T17:37:42.083Z,62.57
2022-09-22T17:40:10.423Z,63.05
2022-09-22T17:42:37.631Z,63.98
2022-09-22T17:45:07.332Z,64.63
2022-09-22T17:47:52.719Z,64.84
2022-09-22T17:50:37.884Z,65.66
2022-09-22T17:53:27.581Z,66.59
2022-09-22T17:55:54.061Z,67.18
2022-09-22T17:58:20.589Z,68.04
2022-09-22T18:00:47.627Z,68.80
2022-09-22T18:03:14.141Z,68.99
2022-09-22T18:05:41.191Z,69.21
2022-09-22T18:08:07.784Z,69.68
2022-09-22T18:10:34.426Z,70.12
2022-09-22T18:13:02.416Z,70.37
2022-09-22T18:15:29.365Z,70.84
2022-09-22T18:17:57.926Z,70.68
2022-09-22T18:20:26.225Z,71.36
2022-09-22T18:22:54.158Z,72.02
2022-09-22T18:25:23.521Z,72.56
2022-09-22T18:27:50.252Z,72.48
2022-09-22T18:30:19.092Z,72.75
2022-09-22T18:32:46.894Z,72.74
2022-09-22T18:35:13.759Z,72.79
2022-09-22T18:37:40.691Z,73.57
2022-09-22T18:40:08.935Z,73.13
2022-09-22T18:42:36.731Z,73.21
2022-09-22T18:45:03.952Z,73.32
2022-09-22T18:47:30.433Z,73.29
2022-09-22T18:49:57.023Z,73.45
2022-09-22T18:52:24.432Z,73.76
2022-09-22T18:54:54.068Z,73.83
2022-09-22T18:57:22.891Z,74.08
2022-09-22T18:59:51.360Z,74.20
2022-09-22T19:02:22.146Z,74.62
2022-09-22T19:04:51.152Z,74.49
2022-09-22T19:07:41.120Z,75.26
2022-09-22T19:10:20.488Z,75.70
2022-09-22T19:12:47.526Z,75.72
2022-09-22T19:15:18.058Z,76.23
2022-09-22T19:17:47.305Z,76.39
2022-09-22T19:20:18.691Z,76.72
2022-09-22T19:22:46.823Z,77.14
2022-09-22T19:25:13.612Z,77.24
2022-09-22T19:27:40.450Z,77.38
2022-09-22T19:30:09.489Z,78.02
2022-09-22T19:32:36.493Z,78.39
2022-09-22T19:35:04.169Z,78.43
2022-09-22T19:37:30.783Z,78.75
2022-09-22T19:39:57.373Z,78.97
2022-09-22T19:42:24.384Z,79.40
2022-09-22T19:44:50.984Z,79.94
2022-09-22T19:47:17.492Z,80.22
2022-09-22T19:49:43.971Z,80.16
2022-09-22T19:52:12.571Z,80.96
2022-09-22T19:54:39.272Z,80.78
2022-09-22T19:57:05.776Z,81.22
2022-09-22T19:59:32.387Z,81.38
2022-09-22T20:01:59.060Z,81.70
2022-09-22T20:04:25.883Z,81.43
2022-09-22T20:06:52.507Z,81.38
2022-09-22T20:09:19.055Z,81.49
2022-09-22T20:11:48.282Z,82.07
2022-09-22T20:14:22.560Z,82.26
2022-09-22T20:17:04.994Z,82.66
2022-09-22T20:19:34.258Z,82.68
2022-09-22T20:22:17.799Z,82.69
2022-09-22T20:24:54.767Z,82.89
2022-09-22T20:27:26.739Z,83.08
2022-09-22T20:29:56.963Z,82.68
2022-09-22T20:32:28.285Z,82.48
2022-09-22T20:34:55.653Z,82.20
2022-09-22T20:37:23.233Z,82.08
2022-09-22T20:39:50.119Z,81.94
2022-09-22T20:42:17.497Z,81.85
2022-09-22T20:44:44.081Z,81.48
2022-09-22T20:47:23.124Z,82.01
2022-09-22T20:49:51.889Z,81.75
2022-09-22T20:52:20.035Z,81.85
2022-09-22T20:54:47.556Z,81.11
2022-09-22T20:57:14.490Z,81.78
2022-09-22T20:59:45.371Z,81.74
2022-09-22T21:02:12.661Z,81.45
2022-09-22T21:04:39.225Z,81.38
2022-09-22T21:07:06.126Z,81.50
2022-09-22T21:09:51.137Z,81.97
2022-09-22T21:12:17.724Z,82.38
2022-09-22T21:14:45.736Z,81.48
2022-09-22T21:17:13.771Z,81.72
2022-09-22T21:19:40.804Z,81.80
2022-09-22T21:22:07.538Z,82.05
2022-09-22T21:24:34.146Z,82.22
2022-09-22T21:27:00.686Z,82.22
2022-09-22T21:29:28.894Z,81.95
2022-09-22T21:31:56.693Z,82.40
2022-09-22T21:34:24.004Z,82.61
2022-09-22T21:36:50.867Z,82.89
2022-09-22T21:39:17.412Z,82.99
2022-09-22T21:41:43.869Z,82.80
2022-09-22T21:44:10.472Z,83.68
2022-09-22T21:46:42.085Z,83.26
2022-09-22T21:49:10.156Z,84.12
2022-09-22T21:51:41.345Z,84.08
2022-09-22T21:54:12.784Z,83.24
2022-09-22T21:56:39.446Z,83.82
2022-09-22T21:59:05.941Z,84.41
2022-09-22T22:01:37.166Z,84.51
2022-09-22T22:04:07.786Z,84.01
2022-09-22T22:06:40.814Z,84.54
2022-09-22T22:09:19.315Z,84.80
2022-09-22T22:11:55.381Z,84.63
2022-09-22T22:14:24.033Z,85.27
2022-09-22T22:16:52.971Z,85.22
2022-09-22T22:19:25.814Z,85.37
2022-09-22T22:21:53.473Z,85.88
2022-09-22T22:24:28.783Z,85.84
2022-09-22T22:27:06.221Z,86.61
2022-09-22T22:29:36.969Z,86.33
2022-09-22T22:32:05.414Z,86.13
2022-09-22T22:34:32.406Z,86.61
2022-09-22T22:36:59.121Z,86.22
2022-09-22T22:39:25.707Z,86.29
2022-09-22T22:41:54.475Z,86.70
2022-09-22T22:44:21.657Z,86.11
2022-09-22T22:46:48.279Z,86.79
2022-09-22T22:49:14.970Z,86.81
2022-09-22T22:51:45.507Z,86.64
2022-09-22T22:54:12.610Z,86.55
2022-09-22T22:56:41.983Z,87.08
2022-09-22T22:59:10.171Z,87.16
2022-09-22T23:01:37.426Z,86.46
2022-09-22T23:04:06.773Z,86.79
2022-09-22T23:06:43.957Z,87.84
2022-09-22T23:09:15.972Z,87.58
2022-09-22T23:11:43.618Z,87.00
2022-09-22T23:14:12.721Z,87.24
2022-09-22T23:16:43.130Z,88.26
2022-09-22T23:19:13.152Z,88.16
2022-09-22T23:21:40.341Z,88.39
2022-09-22T23:24:08.184Z,88.34
2022-09-22T23:26:35.034Z,88.78
2022-09-22T23:29:03.843Z,88.80
2022-09-22T23:31:31.600Z,89.05
2022-09-22T23:33:58.125Z,89.30
2022-09-22T23:36:27.702Z,89.34
2022-09-22T23:38:55.864Z,89.89
2022-09-22T23:41:22.880Z,90.43
2022-09-22T23:43:52.439Z,89.74
2022-09-22T23:46:20.920Z,90.19
2022-09-22T23:48:47.617Z,90.29
2022-09-22T23:51:14.776Z,90.49
2022-09-22T23:53:41.697Z,90.61
2022-09-22T23:56:08.478Z,90.46
2022-09-22T23:58:35.501Z,90.84
